sensor_id;sensor_type;location;lat;lon;timestamp;P1;durP1;ratioP1;P2;durP2;ratioP2
59374;SDS011;45172;55.006;73.460;2023-06-14T00:01:00;16.23;;;5.78;;
59374;SDS011;45172;55.006;73.460;2023-06-14T00:03:28;13.98;;;5.63;;
59374;SDS011;45172;55.006;73.460;2023-06-14T00:05:54;13.02;;;6.38;;
59374;SDS011;45172;55.006;73.460;2023-06-14T00:08:20;27.38;;;11.13;;
59374;SDS011;45172;55.006;73.460;2023-06-14T00:10:48;23.65;;;10.18;;
59374;SDS011;45172;55.006;73.460;2023-06-14T00:13:14;28.25;;;11.60;;
59374;SDS011;45172;55.006;73.460;2023-06-14T00:15:40;14.88;;;5.35;;
59374;SDS011;45172;55.006;73.460;2023-06-14T00:18:06;23.15;;;10.15;;
59374;SDS011;45172;55.006;73.460;2023-06-14T00:20:32;29.25;;;5.40;;
59374;SDS011;45172;55.006;73.460;2023-06-14T00:22:59;20.75;;;5.25;;
59374;SDS011;45172;55.006;73.460;2023-06-14T00:25:26;19.25;;;8.68;;
59374;SDS011;45172;55.006;73.460;2023-06-14T00:27:52;19.30;;;7.55;;
59374;SDS011;45172;55.006;73.460;2023-06-14T00:30:22;11.23;;;3.75;;
59374;SDS011;45172;55.006;73.460;2023-06-14T00:32:51;17.67;;;5.00;;
59374;SDS011;45172;55.006;73.460;2023-06-14T00:35:17;20.05;;;7.53;;
59374;SDS011;45172;55.006;73.460;2023-06-14T00:37:55;21.65;;;9.15;;
59374;SDS011;45172;55.006;73.460;2023-06-14T00:40:22;20.27;;;8.80;;
59374;SDS011;45172;55.006;73.460;2023-06-14T00:42:48;15.95;;;6.95;;
59374;SDS011;45172;55.006;73.460;2023-06-14T00:45:14;16.25;;;6.55;;
59374;SDS011;45172;55.006;73.460;2023-06-14T00:47:40;14.90;;;5.60;;
59374;SDS011;45172;55.006;73.460;2023-06-14T00:50:07;27.55;;;13.43;;
59374;SDS011;45172;55.006;73.460;2023-06-14T00:52:33;10.23;;;3.85;;
59374;SDS011;45172;55.006;73.460;2023-06-14T00:55:00;13.45;;;5.95;;
59374;SDS011;45172;55.006;73.460;2023-06-14T00:57:26;17.90;;;6.30;;
59374;SDS011;45172;55.006;73.460;2023-06-14T00:59:52;13.93;;;6.20;;
59374;SDS011;45172;55.006;73.460;2023-06-14T01:02:20;24.23;;;6.22;;
59374;SDS011;45172;55.006;73.460;2023-06-14T01:04:46;16.30;;;4.78;;
59374;SDS011;45172;55.006;73.460;2023-06-14T01:10:13;11.50;;;4.65;;
59374;SDS011;45172;55.006;73.460;2023-06-14T01:12:55;11.95;;;4.10;;
59374;SDS011;45172;55.006;73.460;2023-06-14T01:15:30;7.63;;;4.10;;
59374;SDS011;45172;55.006;73.460;2023-06-14T01:17:57;12.70;;;4.95;;
59374;SDS011;45172;55.006;73.460;2023-06-14T01:20:29;9.50;;;4.03;;
59374;SDS011;45172;55.006;73.460;2023-06-14T01:22:57;11.65;;;3.75;;
59374;SDS011;45172;55.006;73.460;2023-06-14T01:25:24;9.15;;;4.18;;
59374;SDS011;45172;55.006;73.460;2023-06-14T01:27:55;14.95;;;4.65;;
59374;SDS011;45172;55.006;73.460;2023-06-14T01:30:24;10.30;;;4.75;;
59374;SDS011;45172;55.006;73.460;2023-06-14T01:32:51;12.73;;;4.78;;
59374;SDS011;45172;55.006;73.460;2023-06-14T01:35:21;9.45;;;4.10;;
59374;SDS011;45172;55.006;73.460;2023-06-14T01:37:47;10.13;;;3.60;;
59374;SDS011;45172;55.006;73.460;2023-06-14T01:40:15;8.27;;;3.35;;
59374;SDS011;45172;55.006;73.460;2023-06-14T01:42:59;9.77;;;3.00;;
59374;SDS011;45172;55.006;73.460;2023-06-14T01:45:26;13.10;;;3.28;;
59374;SDS011;45172;55.006;73.460;2023-06-14T01:47:55;12.38;;;3.30;;
59374;SDS011;45172;55.006;73.460;2023-06-14T01:50:22;9.00;;;2.53;;
59374;SDS011;45172;55.006;73.460;2023-06-14T01:52:48;11.93;;;2.72;;
59374;SDS011;45172;55.006;73.460;2023-06-14T01:55:14;11.10;;;3.22;;
59374;SDS011;45172;55.006;73.460;2023-06-14T01:57:40;12.73;;;2.65;;
59374;SDS011;45172;55.006;73.460;2023-06-14T02:00:07;14.95;;;2.55;;
59374;SDS011;45172;55.006;73.460;2023-06-14T02:02:36;4.63;;;2.20;;
59374;SDS011;45172;55.006;73.460;2023-06-14T02:05:02;5.10;;;2.30;;
59374;SDS011;45172;55.006;73.460;2023-06-14T02:07:28;5.22;;;2.30;;
59374;SDS011;45172;55.006;73.460;2023-06-14T02:09:54;13.88;;;2.40;;
59374;SDS011;45172;55.006;73.460;2023-06-14T02:12:20;12.95;;;2.45;;
59374;SDS011;45172;55.006;73.460;2023-06-14T02:14:48;7.03;;;2.10;;
59374;SDS011;45172;55.006;73.460;2023-06-14T02:17:14;6.05;;;2.28;;
59374;SDS011;45172;55.006;73.460;2023-06-14T02:19:41;6.63;;;2.13;;
59374;SDS011;45172;55.006;73.460;2023-06-14T02:22:08;7.38;;;2.10;;
59374;SDS011;45172;55.006;73.460;2023-06-14T02:24:33;5.07;;;2.17;;
59374;SDS011;45172;55.006;73.460;2023-06-14T02:27:01;11.25;;;2.20;;
59374;SDS011;45172;55.006;73.460;2023-06-14T02:29:27;9.57;;;2.20;;
59374;SDS011;45172;55.006;73.460;2023-06-14T02:31:56;10.30;;;2.22;;
59374;SDS011;45172;55.006;73.460;2023-06-14T02:34:23;6.57;;;2.35;;
59374;SDS011;45172;55.006;73.460;2023-06-14T02:36:49;9.82;;;2.20;;
59374;SDS011;45172;55.006;73.460;2023-06-14T02:39:16;5.68;;;2.22;;
59374;SDS011;45172;55.006;73.460;2023-06-14T02:41:44;5.68;;;1.98;;
59374;SDS011;45172;55.006;73.460;2023-06-14T02:44:10;6.22;;;1.95;;
59374;SDS011;45172;55.006;73.460;2023-06-14T02:46:38;9.23;;;2.47;;
59374;SDS011;45172;55.006;73.460;2023-06-14T02:49:05;12.48;;;2.28;;
59374;SDS011;45172;55.006;73.460;2023-06-14T02:51:31;6.63;;;2.88;;
59374;SDS011;45172;55.006;73.460;2023-06-14T02:53:57;9.15;;;2.60;;
59374;SDS011;45172;55.006;73.460;2023-06-14T02:56:23;7.30;;;2.13;;
59374;SDS011;45172;55.006;73.460;2023-06-14T02:58:51;5.20;;;2.50;;
59374;SDS011;45172;55.006;73.460;2023-06-14T03:01:18;4.80;;;2.15;;
59374;SDS011;45172;55.006;73.460;2023-06-14T03:03:46;16.85;;;2.75;;
59374;SDS011;45172;55.006;73.460;2023-06-14T03:06:12;11.63;;;2.70;;
59374;SDS011;45172;55.006;73.460;2023-06-14T03:08:40;8.38;;;2.22;;
59374;SDS011;45172;55.006;73.460;2023-06-14T03:11:07;8.07;;;2.30;;
59374;SDS011;45172;55.006;73.460;2023-06-14T03:13:34;16.23;;;2.30;;
59374;SDS011;45172;55.006;73.460;2023-06-14T03:16:01;14.57;;;2.88;;
59374;SDS011;45172;55.006;73.460;2023-06-14T03:18:30;6.30;;;2.38;;
59374;SDS011;45172;55.006;73.460;2023-06-14T03:21:04;4.03;;;2.50;;
59374;SDS011;45172;55.006;73.460;2023-06-14T03:23:30;4.88;;;2.13;;
59374;SDS011;45172;55.006;73.460;2023-06-14T03:25:56;8.25;;;2.60;;
59374;SDS011;45172;55.006;73.460;2023-06-14T03:28:23;13.02;;;2.45;;
59374;SDS011;45172;55.006;73.460;2023-06-14T03:30:49;7.43;;;2.58;;
59374;SDS011;45172;55.006;73.460;2023-06-14T03:33:15;9.52;;;2.33;;
59374;SDS011;45172;55.006;73.460;2023-06-14T03:35:41;7.20;;;2.30;;
59374;SDS011;45172;55.006;73.460;2023-06-14T03:38:07;6.72;;;2.40;;
59374;SDS011;45172;55.006;73.460;2023-06-14T03:40:33;3.55;;;2.38;;
59374;SDS011;45172;55.006;73.460;2023-06-14T03:43:02;5.75;;;2.60;;
59374;SDS011;45172;55.006;73.460;2023-06-14T03:45:27;13.35;;;2.78;;
59374;SDS011;45172;55.006;73.460;2023-06-14T03:47:53;5.15;;;2.70;;
59374;SDS011;45172;55.006;73.460;2023-06-14T03:50:20;5.28;;;2.80;;
59374;SDS011;45172;55.006;73.460;2023-06-14T03:52:47;4.15;;;2.70;;
59374;SDS011;45172;55.006;73.460;2023-06-14T03:55:14;5.78;;;2.55;;
59374;SDS011;45172;55.006;73.460;2023-06-14T03:57:41;6.05;;;2.70;;
59374;SDS011;45172;55.006;73.460;2023-06-14T04:00:08;5.70;;;2.42;;
59374;SDS011;45172;55.006;73.460;2023-06-14T04:02:35;7.60;;;2.40;;
59374;SDS011;45172;55.006;73.460;2023-06-14T04:05:02;6.00;;;2.38;;
59374;SDS011;45172;55.006;73.460;2023-06-14T04:07:28;3.78;;;2.35;;
59374;SDS011;45172;55.006;73.460;2023-06-14T04:09:55;6.68;;;2.22;;
59374;SDS011;45172;55.006;73.460;2023-06-14T04:12:21;4.68;;;2.20;;
59374;SDS011;45172;55.006;73.460;2023-06-14T04:14:47;4.80;;;2.08;;
59374;SDS011;45172;55.006;73.460;2023-06-14T04:17:13;6.18;;;2.15;;
59374;SDS011;45172;55.006;73.460;2023-06-14T04:19:39;8.85;;;2.33;;
59374;SDS011;45172;55.006;73.460;2023-06-14T04:22:05;11.93;;;2.22;;
59374;SDS011;45172;55.006;73.460;2023-06-14T04:24:31;7.30;;;1.95;;
59374;SDS011;45172;55.006;73.460;2023-06-14T04:26:58;6.63;;;1.88;;
59374;SDS011;45172;55.006;73.460;2023-06-14T04:29:24;6.32;;;1.83;;
59374;SDS011;45172;55.006;73.460;2023-06-14T04:31:53;8.05;;;2.08;;
59374;SDS011;45172;55.006;73.460;2023-06-14T04:34:20;6.28;;;1.80;;
59374;SDS011;45172;55.006;73.460;2023-06-14T04:36:47;7.97;;;1.73;;
59374;SDS011;45172;55.006;73.460;2023-06-14T04:39:18;9.45;;;1.80;;
59374;SDS011;45172;55.006;73.460;2023-06-14T04:41:46;9.75;;;2.17;;
59374;SDS011;45172;55.006;73.460;2023-06-14T04:44:12;11.45;;;2.67;;
59374;SDS011;45172;55.006;73.460;2023-06-14T04:46:38;8.88;;;2.30;;
59374;SDS011;45172;55.006;73.460;2023-06-14T04:49:14;6.68;;;1.77;;
59374;SDS011;45172;55.006;73.460;2023-06-14T04:55:59;9.77;;;3.03;;
59374;SDS011;45172;55.006;73.460;2023-06-14T05:07:27;6.72;;;1.85;;
59374;SDS011;45172;55.006;73.460;2023-06-14T05:14:11;6.97;;;2.35;;
59374;SDS011;45172;55.006;73.460;2023-06-14T05:20:18;8.60;;;1.90;;
59374;SDS011;45172;55.006;73.460;2023-06-14T05:22:43;12.13;;;2.35;;
59374;SDS011;45172;55.006;73.460;2023-06-14T05:25:10;5.78;;;2.00;;
59374;SDS011;45172;55.006;73.460;2023-06-14T05:27:36;9.38;;;2.53;;
59374;SDS011;45172;55.006;73.460;2023-06-14T05:30:03;14.60;;;2.55;;
59374;SDS011;45172;55.006;73.460;2023-06-14T05:32:30;9.80;;;1.90;;
59374;SDS011;45172;55.006;73.460;2023-06-14T05:34:56;10.10;;;2.35;;
59374;SDS011;45172;55.006;73.460;2023-06-14T05:37:23;17.23;;;2.33;;
59374;SDS011;45172;55.006;73.460;2023-06-14T05:39:49;26.23;;;2.58;;
59374;SDS011;45172;55.006;73.460;2023-06-14T05:42:15;11.02;;;2.15;;
59374;SDS011;45172;55.006;73.460;2023-06-14T05:44:40;10.63;;;2.60;;
59374;SDS011;45172;55.006;73.460;2023-06-14T05:47:06;12.55;;;2.15;;
59374;SDS011;45172;55.006;73.460;2023-06-14T05:49:33;6.38;;;1.88;;
59374;SDS011;45172;55.006;73.460;2023-06-14T05:51:58;6.15;;;1.73;;
59374;SDS011;45172;55.006;73.460;2023-06-14T05:54:25;9.15;;;1.98;;
59374;SDS011;45172;55.006;73.460;2023-06-14T05:56:51;26.90;;;2.63;;
59374;SDS011;45172;55.006;73.460;2023-06-14T05:59:17;15.48;;;2.40;;
59374;SDS011;45172;55.006;73.460;2023-06-14T06:01:43;5.38;;;2.10;;
59374;SDS011;45172;55.006;73.460;2023-06-14T06:04:09;6.03;;;2.00;;
59374;SDS011;45172;55.006;73.460;2023-06-14T06:06:38;5.68;;;3.13;;
59374;SDS011;45172;55.006;73.460;2023-06-14T06:09:05;10.25;;;2.03;;
59374;SDS011;45172;55.006;73.460;2023-06-14T06:11:32;7.25;;;1.77;;
59374;SDS011;45172;55.006;73.460;2023-06-14T06:13:58;5.10;;;1.92;;
59374;SDS011;45172;55.006;73.460;2023-06-14T06:16:25;8.15;;;2.15;;
59374;SDS011;45172;55.006;73.460;2023-06-14T06:18:51;9.25;;;2.55;;
59374;SDS011;45172;55.006;73.460;2023-06-14T06:21:17;6.13;;;2.00;;
59374;SDS011;45172;55.006;73.460;2023-06-14T06:23:43;10.63;;;1.92;;
59374;SDS011;45172;55.006;73.460;2023-06-14T06:26:09;5.88;;;2.05;;
59374;SDS011;45172;55.006;73.460;2023-06-14T06:28:37;8.93;;;1.80;;
59374;SDS011;45172;55.006;73.460;2023-06-14T06:31:03;5.82;;;1.80;;
59374;SDS011;45172;55.006;73.460;2023-06-14T06:33:29;4.95;;;1.73;;
59374;SDS011;45172;55.006;73.460;2023-06-14T06:35:55;3.85;;;1.42;;
59374;SDS011;45172;55.006;73.460;2023-06-14T06:38:22;7.22;;;1.90;;
59374;SDS011;45172;55.006;73.460;2023-06-14T06:40:48;3.20;;;1.63;;
59374;SDS011;45172;55.006;73.460;2023-06-14T06:43:14;3.40;;;1.70;;
59374;SDS011;45172;55.006;73.460;2023-06-14T06:45:42;4.65;;;2.00;;
59374;SDS011;45172;55.006;73.460;2023-06-14T06:48:10;11.70;;;2.20;;
59374;SDS011;45172;55.006;73.460;2023-06-14T06:50:36;4.57;;;1.80;;
59374;SDS011;45172;55.006;73.460;2023-06-14T06:53:02;5.43;;;2.30;;
59374;SDS011;45172;55.006;73.460;2023-06-14T06:55:28;4.65;;;2.00;;
59374;SDS011;45172;55.006;73.460;2023-06-14T06:57:55;4.40;;;2.25;;
59374;SDS011;45172;55.006;73.460;2023-06-14T07:00:21;6.78;;;2.10;;
59374;SDS011;45172;55.006;73.460;2023-06-14T07:02:48;11.18;;;1.92;;
59374;SDS011;45172;55.006;73.460;2023-06-14T07:05:14;5.60;;;1.80;;
59374;SDS011;45172;55.006;73.460;2023-06-14T07:07:40;8.77;;;2.00;;
59374;SDS011;45172;55.006;73.460;2023-06-14T07:10:07;8.20;;;1.60;;
59374;SDS011;45172;55.006;73.460;2023-06-14T07:12:33;5.70;;;1.85;;
59374;SDS011;45172;55.006;73.460;2023-06-14T07:15:05;5.63;;;2.00;;
59374;SDS011;45172;55.006;73.460;2023-06-14T07:17:35;8.07;;;1.60;;
59374;SDS011;45172;55.006;73.460;2023-06-14T07:20:02;6.32;;;1.65;;
59374;SDS011;45172;55.006;73.460;2023-06-14T07:22:39;6.40;;;1.90;;
59374;SDS011;45172;55.006;73.460;2023-06-14T07:25:09;8.15;;;2.17;;
59374;SDS011;45172;55.006;73.460;2023-06-14T07:27:42;4.28;;;1.70;;
59374;SDS011;45172;55.006;73.460;2023-06-14T07:30:09;3.35;;;1.80;;
59374;SDS011;45172;55.006;73.460;2023-06-14T07:32:36;6.68;;;2.00;;
59374;SDS011;45172;55.006;73.460;2023-06-14T07:35:02;2.92;;;1.50;;
59374;SDS011;45172;55.006;73.460;2023-06-14T07:37:28;3.90;;;1.50;;
59374;SDS011;45172;55.006;73.460;2023-06-14T07:39:55;6.88;;;1.70;;
59374;SDS011;45172;55.006;73.460;2023-06-14T07:42:20;4.93;;;1.50;;
59374;SDS011;45172;55.006;73.460;2023-06-14T07:44:48;6.15;;;2.00;;
59374;SDS011;45172;55.006;73.460;2023-06-14T07:47:14;2.22;;;1.40;;
59374;SDS011;45172;55.006;73.460;2023-06-14T07:49:40;5.97;;;2.22;;
59374;SDS011;45172;55.006;73.460;2023-06-14T07:52:06;5.93;;;2.47;;
59374;SDS011;45172;55.006;73.460;2023-06-14T07:54:32;5.45;;;2.20;;
59374;SDS011;45172;55.006;73.460;2023-06-14T07:56:58;4.25;;;2.00;;
59374;SDS011;45172;55.006;73.460;2023-06-14T07:59:26;9.52;;;1.85;;
59374;SDS011;45172;55.006;73.460;2023-06-14T08:01:52;9.10;;;2.10;;
59374;SDS011;45172;55.006;73.460;2023-06-14T08:04:18;13.40;;;1.98;;
59374;SDS011;45172;55.006;73.460;2023-06-14T08:06:44;5.78;;;2.10;;
59374;SDS011;45172;55.006;73.460;2023-06-14T08:09:11;5.60;;;1.80;;
59374;SDS011;45172;55.006;73.460;2023-06-14T08:11:38;4.93;;;2.00;;
59374;SDS011;45172;55.006;73.460;2023-06-14T08:14:05;5.97;;;2.10;;
59374;SDS011;45172;55.006;73.460;2023-06-14T08:16:31;6.82;;;1.88;;
59374;SDS011;45172;55.006;73.460;2023-06-14T08:18:57;4.45;;;1.58;;
59374;SDS011;45172;55.006;73.460;2023-06-14T08:21:23;15.10;;;2.10;;
59374;SDS011;45172;55.006;73.460;2023-06-14T08:23:52;5.53;;;1.70;;
59374;SDS011;45172;55.006;73.460;2023-06-14T08:26:18;9.40;;;1.52;;
59374;SDS011;45172;55.006;73.460;2023-06-14T08:28:44;8.75;;;2.63;;
59374;SDS011;45172;55.006;73.460;2023-06-14T08:31:11;6.03;;;1.83;;
59374;SDS011;45172;55.006;73.460;2023-06-14T08:33:38;6.90;;;2.42;;
59374;SDS011;45172;55.006;73.460;2023-06-14T08:36:09;7.13;;;2.10;;
59374;SDS011;45172;55.006;73.460;2023-06-14T08:38:37;7.43;;;2.20;;
59374;SDS011;45172;55.006;73.460;2023-06-14T08:41:03;10.32;;;2.28;;
59374;SDS011;45172;55.006;73.460;2023-06-14T08:43:32;4.53;;;1.77;;
59374;SDS011;45172;55.006;73.460;2023-06-14T08:46:00;5.18;;;1.50;;
59374;SDS011;45172;55.006;73.460;2023-06-14T08:48:28;13.45;;;3.38;;
59374;SDS011;45172;55.006;73.460;2023-06-14T08:51:01;10.02;;;3.45;;
59374;SDS011;45172;55.006;73.460;2023-06-14T08:53:32;9.38;;;4.43;;
59374;SDS011;45172;55.006;73.460;2023-06-14T08:56:02;7.50;;;1.90;;
59374;SDS011;45172;55.006;73.460;2023-06-14T08:58:30;12.50;;;2.03;;
59374;SDS011;45172;55.006;73.460;2023-06-14T09:00:59;11.32;;;2.40;;
59374;SDS011;45172;55.006;73.460;2023-06-14T09:03:27;5.55;;;1.88;;
59374;SDS011;45172;55.006;73.460;2023-06-14T09:05:56;5.38;;;2.20;;
59374;SDS011;45172;55.006;73.460;2023-06-14T09:08:25;6.57;;;4.28;;
59374;SDS011;45172;55.006;73.460;2023-06-14T09:10:52;15.35;;;7.40;;
59374;SDS011;45172;55.006;73.460;2023-06-14T09:13:35;10.38;;;3.80;;
59374;SDS011;45172;55.006;73.460;2023-06-14T09:16:02;5.22;;;2.53;;
59374;SDS011;45172;55.006;73.460;2023-06-14T09:18:37;7.75;;;2.53;;
59374;SDS011;45172;55.006;73.460;2023-06-14T09:21:06;10.88;;;2.00;;
59374;SDS011;45172;55.006;73.460;2023-06-14T09:23:36;15.07;;;9.52;;
59374;SDS011;45172;55.006;73.460;2023-06-14T09:26:11;7.38;;;3.10;;
59374;SDS011;45172;55.006;73.460;2023-06-14T09:28:45;7.70;;;1.52;;
59374;SDS011;45172;55.006;73.460;2023-06-14T09:31:13;3.63;;;1.45;;
59374;SDS011;45172;55.006;73.460;2023-06-14T09:33:47;6.60;;;2.15;;
59374;SDS011;45172;55.006;73.460;2023-06-14T09:41:39;28.67;;;4.00;;
59374;SDS011;45172;55.006;73.460;2023-06-14T09:44:06;11.15;;;3.60;;
59374;SDS011;45172;55.006;73.460;2023-06-14T09:46:36;9.80;;;2.50;;
59374;SDS011;45172;55.006;73.460;2023-06-14T09:49:04;12.80;;;1.80;;
59374;SDS011;45172;55.006;73.460;2023-06-14T09:55:52;11.85;;;1.95;;
59374;SDS011;45172;55.006;73.460;2023-06-14T10:06:56;7.70;;;1.80;;
59374;SDS011;45172;55.006;73.460;2023-06-14T10:13:41;12.45;;;2.05;;
59374;SDS011;45172;55.006;73.460;2023-06-14T10:19:56;7.60;;;1.48;;
59374;SDS011;45172;55.006;73.460;2023-06-14T10:22:38;9.75;;;1.75;;
59374;SDS011;45172;55.006;73.460;2023-06-14T10:25:25;3.97;;;1.48;;
59374;SDS011;45172;55.006;73.460;2023-06-14T10:31:02;5.88;;;1.50;;
59374;SDS011;45172;55.006;73.460;2023-06-14T10:33:33;6.38;;;1.48;;
59374;SDS011;45172;55.006;73.460;2023-06-14T10:36:09;15.68;;;2.00;;
59374;SDS011;45172;55.006;73.460;2023-06-14T10:39:07;9.65;;;1.70;;
59374;SDS011;45172;55.006;73.460;2023-06-14T10:41:39;8.00;;;1.80;;
59374;SDS011;45172;55.006;73.460;2023-06-14T10:46:38;5.38;;;1.58;;
59374;SDS011;45172;55.006;73.460;2023-06-14T10:49:41;10.00;;;2.00;;
59374;SDS011;45172;55.006;73.460;2023-06-14T11:10:10;11.30;;;1.95;;
59374;SDS011;45172;55.006;73.460;2023-06-14T11:21:25;6.75;;;1.75;;
59374;SDS011;45172;55.006;73.460;2023-06-14T11:28:14;12.10;;;2.67;;
59374;SDS011;45172;55.006;73.460;2023-06-14T11:34:58;10.45;;;2.53;;
59374;SDS011;45172;55.006;73.460;2023-06-14T11:37:25;14.93;;;2.10;;
59374;SDS011;45172;55.006;73.460;2023-06-14T11:39:57;18.05;;;2.15;;
59374;SDS011;45172;55.006;73.460;2023-06-14T11:42:24;7.93;;;2.67;;
59374;SDS011;45172;55.006;73.460;2023-06-14T11:44:54;14.23;;;2.90;;
59374;SDS011;45172;55.006;73.460;2023-06-14T11:47:21;9.27;;;2.40;;
59374;SDS011;45172;55.006;73.460;2023-06-14T11:49:50;6.07;;;2.63;;
59374;SDS011;45172;55.006;73.460;2023-06-14T11:52:16;3.03;;;2.30;;
59374;SDS011;45172;55.006;73.460;2023-06-14T11:54:42;7.57;;;2.20;;
59374;SDS011;45172;55.006;73.460;2023-06-14T11:57:09;10.02;;;2.22;;
59374;SDS011;45172;55.006;73.460;2023-06-14T11:59:39;6.15;;;2.60;;
59374;SDS011;45172;55.006;73.460;2023-06-14T12:02:06;5.68;;;1.98;;
59374;SDS011;45172;55.006;73.460;2023-06-14T12:04:33;15.95;;;3.30;;
59374;SDS011;45172;55.006;73.460;2023-06-14T12:07:09;13.07;;;4.00;;
59374;SDS011;45172;55.006;73.460;2023-06-14T12:12:31;3.15;;;1.75;;
59374;SDS011;45172;55.006;73.460;2023-06-14T12:15:00;8.07;;;3.20;;
59374;SDS011;45172;55.006;73.460;2023-06-14T12:17:31;10.45;;;2.75;;
59374;SDS011;45172;55.006;73.460;2023-06-14T12:19:59;8.18;;;2.20;;
59374;SDS011;45172;55.006;73.460;2023-06-14T12:22:32;7.28;;;2.55;;
59374;SDS011;45172;55.006;73.460;2023-06-14T12:24:58;7.18;;;2.45;;
59374;SDS011;45172;55.006;73.460;2023-06-14T12:27:25;8.25;;;5.90;;
59374;SDS011;45172;55.006;73.460;2023-06-14T12:30:01;8.10;;;2.78;;
59374;SDS011;45172;55.006;73.460;2023-06-14T12:32:28;5.25;;;2.88;;
59374;SDS011;45172;55.006;73.460;2023-06-14T12:34:55;18.80;;;3.65;;
59374;SDS011;45172;55.006;73.460;2023-06-14T12:37:21;12.30;;;3.03;;
59374;SDS011;45172;55.006;73.460;2023-06-14T12:39:47;6.00;;;4.13;;
59374;SDS011;45172;55.006;73.460;2023-06-14T12:42:13;10.43;;;2.67;;
59374;SDS011;45172;55.006;73.460;2023-06-14T12:44:40;18.63;;;3.25;;
59374;SDS011;45172;55.006;73.460;2023-06-14T12:47:07;9.85;;;4.93;;
59374;SDS011;45172;55.006;73.460;2023-06-14T12:49:33;9.45;;;3.20;;
59374;SDS011;45172;55.006;73.460;2023-06-14T12:51:59;9.88;;;3.00;;
59374;SDS011;45172;55.006;73.460;2023-06-14T12:54:25;7.63;;;2.97;;
59374;SDS011;45172;55.006;73.460;2023-06-14T12:56:53;13.95;;;3.60;;
59374;SDS011;45172;55.006;73.460;2023-06-14T12:59:20;16.73;;;3.85;;
59374;SDS011;45172;55.006;73.460;2023-06-14T13:01:46;13.95;;;3.95;;
59374;SDS011;45172;55.006;73.460;2023-06-14T13:04:15;6.55;;;3.60;;
59374;SDS011;45172;55.006;73.460;2023-06-14T13:06:41;11.32;;;4.10;;
59374;SDS011;45172;55.006;73.460;2023-06-14T13:09:07;8.32;;;3.17;;
59374;SDS011;45172;55.006;73.460;2023-06-14T13:11:33;6.40;;;3.35;;
59374;SDS011;45172;55.006;73.460;2023-06-14T13:13:59;5.43;;;3.53;;
59374;SDS011;45172;55.006;73.460;2023-06-14T13:16:25;10.65;;;4.60;;
59374;SDS011;45172;55.006;73.460;2023-06-14T13:18:51;21.05;;;6.95;;
59374;SDS011;45172;55.006;73.460;2023-06-14T13:21:17;19.90;;;8.20;;
59374;SDS011;45172;55.006;73.460;2023-06-14T13:23:43;11.10;;;4.00;;
59374;SDS011;45172;55.006;73.460;2023-06-14T13:26:09;8.38;;;3.33;;
59374;SDS011;45172;55.006;73.460;2023-06-14T13:28:35;8.30;;;4.00;;
59374;SDS011;45172;55.006;73.460;2023-06-14T13:31:02;15.77;;;7.60;;
59374;SDS011;45172;55.006;73.460;2023-06-14T13:33:28;22.88;;;14.95;;
59374;SDS011;45172;55.006;73.460;2023-06-14T13:35:54;8.77;;;6.20;;
59374;SDS011;45172;55.006;73.460;2023-06-14T13:38:20;25.02;;;8.60;;
59374;SDS011;45172;55.006;73.460;2023-06-14T13:40:46;23.45;;;7.65;;
59374;SDS011;45172;55.006;73.460;2023-06-14T13:43:16;19.85;;;5.53;;
59374;SDS011;45172;55.006;73.460;2023-06-14T13:45:42;26.40;;;8.38;;
59374;SDS011;45172;55.006;73.460;2023-06-14T13:48:08;11.23;;;6.07;;
59374;SDS011;45172;55.006;73.460;2023-06-14T13:50:34;11.07;;;5.18;;
59374;SDS011;45172;55.006;73.460;2023-06-14T13:53:02;12.48;;;5.85;;
59374;SDS011;45172;55.006;73.460;2023-06-14T13:55:28;16.38;;;5.50;;
59374;SDS011;45172;55.006;73.460;2023-06-14T13:57:54;13.32;;;7.63;;
59374;SDS011;45172;55.006;73.460;2023-06-14T14:00:20;21.10;;;8.63;;
59374;SDS011;45172;55.006;73.460;2023-06-14T14:02:47;13.20;;;6.55;;
59374;SDS011;45172;55.006;73.460;2023-06-14T14:05:16;31.90;;;11.80;;
59374;SDS011;45172;55.006;73.460;2023-06-14T14:07:41;11.27;;;5.20;;
59374;SDS011;45172;55.006;73.460;2023-06-14T14:10:08;16.05;;;5.72;;
59374;SDS011;45172;55.006;73.460;2023-06-14T14:12:35;12.15;;;4.93;;
59374;SDS011;45172;55.006;73.460;2023-06-14T14:15:05;17.27;;;4.80;;
59374;SDS011;45172;55.006;73.460;2023-06-14T14:17:38;9.65;;;5.00;;
59374;SDS011;45172;55.006;73.460;2023-06-14T14:20:04;14.10;;;4.68;;
59374;SDS011;45172;55.006;73.460;2023-06-14T14:22:31;13.02;;;4.50;;
59374;SDS011;45172;55.006;73.460;2023-06-14T14:24:58;13.43;;;4.68;;
59374;SDS011;45172;55.006;73.460;2023-06-14T14:27:24;20.55;;;4.70;;
59374;SDS011;45172;55.006;73.460;2023-06-14T14:29:50;24.95;;;7.60;;
59374;SDS011;45172;55.006;73.460;2023-06-14T14:32:16;37.72;;;21.90;;
59374;SDS011;45172;55.006;73.460;2023-06-14T14:34:42;24.90;;;10.75;;
59374;SDS011;45172;55.006;73.460;2023-06-14T14:37:08;15.32;;;8.18;;
59374;SDS011;45172;55.006;73.460;2023-06-14T14:39:34;20.48;;;8.32;;
59374;SDS011;45172;55.006;73.460;2023-06-14T14:42:01;15.73;;;5.63;;
59374;SDS011;45172;55.006;73.460;2023-06-14T14:44:27;29.30;;;11.95;;
59374;SDS011;45172;55.006;73.460;2023-06-14T14:46:53;67.28;;;47.03;;
59374;SDS011;45172;55.006;73.460;2023-06-14T14:49:21;17.83;;;6.13;;
59374;SDS011;45172;55.006;73.460;2023-06-14T14:51:47;20.02;;;12.40;;
59374;SDS011;45172;55.006;73.460;2023-06-14T14:54:13;30.40;;;13.32;;
59374;SDS011;45172;55.006;73.460;2023-06-14T14:56:39;13.48;;;9.40;;
59374;SDS011;45172;55.006;73.460;2023-06-14T14:59:05;24.25;;;15.32;;
59374;SDS011;45172;55.006;73.460;2023-06-14T15:01:31;12.68;;;6.57;;
59374;SDS011;45172;55.006;73.460;2023-06-14T15:03:57;18.98;;;7.80;;
59374;SDS011;45172;55.006;73.460;2023-06-14T15:06:23;14.95;;;5.40;;
59374;SDS011;45172;55.006;73.460;2023-06-14T15:08:49;24.33;;;7.95;;
59374;SDS011;45172;55.006;73.460;2023-06-14T15:11:16;20.83;;;8.05;;
59374;SDS011;45172;55.006;73.460;2023-06-14T15:13:42;21.40;;;7.05;;
59374;SDS011;45172;55.006;73.460;2023-06-14T15:16:08;305.35;;;100.63;;
59374;SDS011;45172;55.006;73.460;2023-06-14T15:18:34;337.13;;;128.75;;
59374;SDS011;45172;55.006;73.460;2023-06-14T15:21:00;249.45;;;100.60;;
59374;SDS011;45172;55.006;73.460;2023-06-14T15:23:26;272.02;;;128.30;;
59374;SDS011;45172;55.006;73.460;2023-06-14T15:25:52;220.63;;;127.13;;
59374;SDS011;45172;55.006;73.460;2023-06-14T15:28:19;93.97;;;53.53;;
59374;SDS011;45172;55.006;73.460;2023-06-14T15:30:47;67.13;;;32.55;;
59374;SDS011;45172;55.006;73.460;2023-06-14T15:33:13;31.05;;;15.52;;
59374;SDS011;45172;55.006;73.460;2023-06-14T15:35:39;29.00;;;13.88;;
59374;SDS011;45172;55.006;73.460;2023-06-14T15:38:05;45.92;;;20.40;;
59374;SDS011;45172;55.006;73.460;2023-06-14T15:40:31;549.95;;;365.77;;
59374;SDS011;45172;55.006;73.460;2023-06-14T15:42:59;846.00;;;600.72;;
59374;SDS011;45172;55.006;73.460;2023-06-14T15:45:25;119.55;;;55.83;;
59374;SDS011;45172;55.006;73.460;2023-06-14T15:47:51;173.80;;;116.97;;
59374;SDS011;45172;55.006;73.460;2023-06-14T15:50:17;118.30;;;82.88;;
59374;SDS011;45172;55.006;73.460;2023-06-14T15:52:45;38.45;;;18.35;;
59374;SDS011;45172;55.006;73.460;2023-06-14T15:55:12;65.68;;;33.00;;
59374;SDS011;45172;55.006;73.460;2023-06-14T15:57:38;47.45;;;23.42;;
59374;SDS011;45172;55.006;73.460;2023-06-14T16:00:05;86.40;;;44.17;;
59374;SDS011;45172;55.006;73.460;2023-06-14T16:02:31;42.85;;;22.27;;